createdAt,value
2018-03-16T12:56:55.448Z,88.38
2018-03-16T12:56:55.972Z,88.38
2018-03-16T12:56:56.536Z,88.38
2018-03-16T12:58:13.296Z,85.72
2018-03-16T12:58:13.857Z,85.34
2018-03-16T12:58:14.798Z,84.95
2018-03-16T12:58:15.490Z,84.95
2018-03-16T12:58:16.436Z,84.95
2018-03-16T12:59:30.592Z,84.29
2018-03-16T12:59:31.267Z,84.39
2018-03-16T12:59:31.848Z,84.29
2018-03-16T12:59:32.388Z,84.29
2018-03-16T12:59:33.126Z,84.39
2018-03-16T12:59:33.590Z,84.39
2018-03-16T12:59:34.222Z,84.58
2018-03-16T12:59:34.748Z,85.15
2018-03-16T12:59:35.422Z,84.48
2018-03-16T12:59:36.039Z,84.39
2018-03-16T12:59:36.698Z,84.77
2018-03-16T12:59:37.298Z,84.86
2018-03-16T12:59:37.876Z,84.58
2018-03-16T12:59:38.411Z,84.58
2018-03-16T12:59:39.408Z,85.24
2018-03-16T12:59:39.872Z,85.15
2018-03-16T13:00:54.524Z,84.39
2018-03-16T13:00:55.186Z,84.86
2018-03-16T13:00:55.837Z,84.29
2018-03-16T13:00:56.520Z,84.48
2018-03-16T13:00:57.193Z,84.39
2018-03-16T13:00:57.838Z,84.39
2018-03-16T13:01:55.450Z,86.00
2018-03-16T13:01:56.106Z,86.00
2018-03-16T13:01:57.067Z,85.53
2018-03-16T13:01:57.601Z,86.10
2018-03-16T13:02:52.967Z,85.15
2018-03-16T13:02:53.497Z,85.24
2018-03-16T13:02:54.146Z,84.86
2018-03-16T13:02:54.718Z,85.34
2018-03-16T13:02:55.359Z,85.15
2018-03-16T13:02:56.007Z,84.86
2018-03-16T13:04:17.744Z,85.34
2018-03-16T13:04:18.338Z,85.24
2018-03-16T13:04:18.890Z,85.43
2018-03-16T13:04:19.578Z,85.15
2018-03-16T13:04:20.122Z,85.43
2018-03-16T13:04:20.787Z,85.05
2018-03-16T13:04:21.453Z,85.15
2018-03-16T13:04:22.166Z,85.34
2018-03-16T13:04:22.682Z,85.43
2018-03-16T13:04:23.342Z,85.24
2018-03-16T13:04:23.980Z,84.95
2018-03-16T13:04:24.938Z,85.05
2018-03-16T13:04:25.467Z,85.05
2018-03-16T13:04:26.004Z,85.34
2018-03-16T13:05:21.138Z,85.43
2018-03-16T13:05:21.797Z,85.62
2018-03-16T13:05:22.464Z,85.34
2018-03-16T13:05:23.420Z,85.34
2018-03-16T13:05:23.950Z,85.34
2018-03-16T13:05:24.476Z,85.53
2018-03-16T13:05:25.143Z,85.53
2018-03-16T13:05:25.777Z,85.62
2018-03-16T13:05:26.420Z,85.53
2018-03-16T13:05:27.088Z,85.53
2018-03-16T13:05:27.727Z,85.24
2018-03-16T13:05:28.258Z,85.43
2018-03-16T13:05:29.268Z,85.43
2018-03-16T13:05:29.866Z,85.05
2018-03-16T13:05:30.524Z,85.43
2018-03-16T13:05:31.199Z,85.05
2018-03-16T13:05:31.758Z,85.24
2018-03-16T13:05:32.296Z,85.24
2018-03-16T13:05:32.960Z,84.95
2018-03-16T13:05:33.987Z,85.15
2018-03-16T13:05:34.549Z,85.15
2018-03-16T13:05:35.247Z,85.15
2018-03-16T13:05:35.759Z,85.15
2018-03-16T13:05:36.330Z,85.24
2018-03-16T13:05:37.043Z,85.15
2018-03-16T13:05:37.567Z,85.15
2018-03-16T13:05:38.142Z,85.15
2018-03-16T13:05:38.780Z,85.24
2018-03-16T13:05:39.317Z,85.15
2018-03-16T13:05:39.853Z,84.95
2018-03-16T13:05:40.518Z,85.24
2018-03-16T13:05:41.152Z,85.15
2018-03-16T13:05:41.683Z,84.95
2018-03-16T13:05:42.665Z,85.34
2018-03-16T13:05:43.294Z,85.15
2018-03-16T13:05:45.643Z,85.34
2018-03-16T13:05:46.295Z,85.34
2018-03-16T13:05:46.838Z,85.05
2018-03-16T13:05:47.489Z,85.53
2018-03-16T13:05:48.443Z,85.24
2018-03-16T13:05:49.037Z,85.15
2018-03-16T13:05:49.567Z,85.15
2018-03-16T13:05:50.516Z,85.15
2018-03-16T13:05:51.470Z,85.15
2018-03-16T13:05:52.153Z,84.95
2018-03-16T13:05:52.648Z,85.05
2018-03-16T13:05:53.310Z,85.15
2018-03-16T13:05:53.981Z,85.05
2018-03-16T13:05:54.526Z,84.95
2018-03-16T13:05:55.085Z,84.95
2018-03-16T13:05:55.738Z,85.05
2018-03-16T13:05:56.397Z,84.95
2018-03-16T13:05:56.938Z,85.15
2018-03-16T13:05:57.892Z,84.67
2018-03-16T13:05:58.539Z,84.95
2018-03-16T13:05:59.072Z,84.95
2018-03-16T13:05:59.744Z,85.15
2018-03-16T13:06:00.282Z,84.86
2018-03-16T13:06:00.947Z,84.77
2018-03-16T13:06:01.608Z,84.58
2018-03-16T13:06:02.209Z,85.15
2018-03-16T13:06:02.728Z,84.86
2018-03-16T13:06:03.405Z,85.15
2018-03-16T13:06:04.389Z,84.39
2018-03-16T13:06:04.876Z,84.58
2018-03-16T13:06:05.443Z,84.67
2018-03-16T13:06:06.909Z,84.58
2018-03-16T13:06:07.548Z,84.58
2018-03-16T13:06:08.209Z,84.20
2018-03-16T13:06:08.743Z,84.39
2018-03-16T13:06:09.272Z,84.58
2018-03-16T13:06:09.849Z,84.67
2018-03-16T13:06:10.629Z,84.20
2018-03-16T13:06:11.177Z,84.39
2018-03-16T13:06:12.126Z,84.58
2018-03-16T13:06:12.787Z,84.67
2018-03-16T13:06:13.454Z,84.29
2018-03-16T13:06:14.100Z,84.20
2018-03-16T13:06:14.639Z,84.39
2018-03-16T13:06:15.632Z,84.20
2018-03-16T13:06:16.256Z,84.58
2018-03-16T13:06:16.914Z,84.20
2018-03-16T13:06:17.868Z,84.58
2018-03-16T13:06:18.538Z,84.58
2018-03-16T13:06:19.179Z,84.20
2018-03-16T13:06:20.144Z,84.58
2018-03-16T13:06:21.084Z,84.39
2018-03-16T13:06:21.751Z,84.39
2018-03-16T13:06:22.421Z,84.48
2018-03-16T13:06:23.088Z,84.48
2018-03-16T13:06:23.653Z,84.58
2018-03-16T13:06:24.284Z,84.39
2018-03-16T13:06:25.254Z,84.58
2018-03-16T13:06:25.982Z,84.58
2018-03-16T13:06:26.523Z,84.58
2018-03-16T13:06:27.175Z,84.48
2018-03-16T13:06:28.129Z,84.58
2018-03-16T13:06:28.708Z,84.77
2018-03-16T13:06:29.368Z,84.48
2018-03-16T13:06:30.049Z,84.77
2018-03-16T13:06:30.695Z,84.58
2018-03-16T13:06:31.257Z,84.58
2018-03-16T13:06:31.803Z,84.58
2018-03-16T13:06:32.756Z,84.58
2018-03-16T13:06:33.289Z,84.58
2018-03-16T13:06:33.840Z,84.58
2018-03-16T13:06:34.363Z,84.86
2018-03-16T13:06:35.318Z,84.29
2018-03-16T13:06:35.858Z,84.86
2018-03-16T13:06:36.507Z,84.58
2018-03-16T13:06:37.197Z,84.39
2018-03-16T13:06:37.869Z,84.77
2018-03-16T13:06:38.405Z,84.67
2018-03-16T13:06:39.040Z,84.58
2018-03-16T13:06:39.986Z,85.15
2018-03-16T13:06:40.722Z,84.67
2018-03-16T13:06:41.299Z,84.77
2018-03-16T13:06:41.953Z,84.77
2018-03-16T13:06:42.596Z,84.67
2018-03-16T13:06:43.258Z,84.95
2018-03-16T13:06:43.847Z,84.58
2018-03-16T13:06:44.375Z,84.58
2018-03-16T13:06:45.339Z,84.86
2018-03-16T13:06:46.296Z,84.67
2018-03-16T13:06:46.968Z,85.05
2018-03-16T13:06:47.630Z,84.95
2018-03-16T13:06:48.589Z,84.95
2018-03-16T13:06:49.227Z,84.86
2018-03-16T13:06:49.810Z,85.24
2018-03-16T13:06:50.400Z,85.24
2018-03-16T13:06:51.348Z,85.72
2018-03-16T13:06:52.309Z,85.62
2018-03-16T13:06:52.802Z,85.24
2018-03-16T13:06:53.447Z,85.34
2018-03-16T13:06:54.808Z,85.53
2018-03-16T13:06:55.277Z,85.05
2018-03-16T13:06:55.810Z,85.15
2018-03-16T13:06:56.538Z,85.24
2018-03-16T13:06:57.048Z,84.95
2018-03-16T13:06:57.700Z,85.24
2018-03-16T13:06:58.364Z,85.15
2018-03-16T13:06:58.938Z,84.95
2018-03-16T13:06:59.529Z,85.15
2018-03-16T13:07:00.186Z,85.05
2018-03-16T13:07:00.737Z,85.43
2018-03-16T13:07:01.388Z,85.15
2018-03-16T13:07:02.028Z,85.43
2018-03-16T13:07:02.692Z,85.24
2018-03-16T13:07:03.354Z,85.53
2018-03-16T13:07:04.199Z,85.24
2018-03-16T13:07:04.537Z,85.34
2018-03-16T13:07:05.105Z,85.43
2018-03-16T13:08:19.500Z,85.15
2018-03-16T13:08:20.132Z,85.15
2018-03-16T13:08:20.899Z,85.05
2018-03-16T13:08:21.433Z,85.24
2018-03-16T13:08:22.392Z,85.34
2018-03-16T13:08:23.138Z,85.34
2018-03-16T13:09:17.393Z,86.10
2018-03-16T13:09:18.363Z,86.29
2018-03-16T13:09:19.120Z,86.10
2018-03-16T13:09:19.698Z,86.10
2018-03-16T13:09:20.348Z,86.00
2018-03-16T13:09:21.009Z,86.10
2018-03-16T13:10:15.947Z,85.72
2018-03-16T13:10:16.916Z,85.72
2018-03-16T13:10:17.398Z,85.24
2018-03-16T13:10:17.938Z,85.15
2018-03-16T13:10:18.630Z,85.05
2018-03-16T13:10:19.238Z,85.15
2018-03-16T13:11:14.279Z,84.39
2018-03-16T13:11:14.895Z,84.67
2018-03-16T13:11:15.547Z,84.39
2018-03-16T13:11:16.254Z,84.34
2018-03-16T13:11:16.899Z,84.63
2018-03-16T13:11:17.443Z,84.20
2018-03-16T13:12:11.459Z,85.30
2018-03-16T13:12:11.987Z,85.39
2018-03-16T13:12:12.641Z,85.72
2018-03-16T13:12:13.589Z,85.43
2018-03-16T13:12:14.480Z,85.62
2018-03-16T13:12:15.159Z,85.72
2018-03-16T13:13:11.571Z,85.86
2018-03-16T13:13:12.035Z,86.00
2018-03-16T13:13:12.699Z,86.19
2018-03-16T13:13:13.297Z,86.10
2018-03-16T13:14:28.075Z,84.63
2018-03-16T13:14:28.583Z,84.63
2018-03-16T13:14:29.537Z,84.63
2018-03-16T13:14:30.198Z,84.44
2018-03-16T13:14:31.057Z,84.53
2018-03-16T13:14:31.602Z,84.53
2018-03-16T13:15:26.166Z,84.82
2018-03-16T13:15:26.717Z,84.72
2018-03-16T13:15:27.372Z,84.82
2018-03-16T13:15:27.959Z,84.72
2018-03-16T13:15:28.519Z,84.53
2018-03-16T13:15:29.043Z,84.53
2018-03-16T13:15:29.618Z,84.53
2018-03-16T13:16:43.844Z,85.68
2018-03-16T13:16:44.501Z,85.58
2018-03-16T13:16:45.149Z,86.00
2018-03-16T13:16:45.817Z,85.58
2018-03-16T13:16:46.421Z,85.53
2018-03-16T13:16:47.108Z,85.86
2018-03-16T13:18:52.128Z,85.34
2018-03-16T13:18:53.070Z,85.34
2018-03-16T13:18:53.927Z,85.53
2018-03-16T13:18:54.577Z,85.72
2018-03-16T13:18:55.258Z,85.62
2018-03-16T13:20:18.297Z,84.58
2018-03-16T13:20:18.948Z,84.77
2018-03-16T13:20:19.540Z,84.39
2018-03-16T13:20:20.148Z,84.67
2018-03-16T13:20:20.680Z,84.29
2018-03-16T13:20:21.337Z,84.48
2018-03-16T13:20:22.026Z,84.20
2018-03-16T13:20:22.639Z,84.39
2018-03-16T13:44:42.513Z,85.44
2018-03-16T13:44:43.165Z,85.25
2018-03-16T13:44:43.885Z,85.25
2018-03-16T13:44:44.433Z,85.35
2018-03-16T13:44:45.123Z,85.44
2018-03-16T13:44:45.654Z,86.01
2018-03-16T13:44:46.345Z,85.91
2018-03-16T13:44:47.011Z,85.82
2018-03-16T13:44:47.873Z,85.91
2018-03-16T13:44:48.424Z,85.82
2018-03-16T13:44:49.381Z,85.72
2018-03-16T13:44:49.931Z,85.63
2018-03-16T13:44:50.581Z,85.91
2018-03-16T13:44:51.238Z,85.63
2018-03-16T13:44:51.912Z,85.63
2018-03-16T13:44:52.792Z,85.63
2018-03-16T13:44:53.433Z,85.72
2018-03-16T13:44:54.133Z,85.82
2018-03-16T13:44:54.681Z,85.91
2018-03-16T13:44:55.345Z,85.82
2018-03-16T13:44:56.084Z,86.11
2018-03-16T13:44:56.733Z,85.91
2018-03-16T13:44:57.394Z,85.53
2018-03-16T13:44:58.035Z,85.53
2018-03-16T13:44:58.994Z,85.72
2018-03-16T13:44:59.942Z,85.82
2018-03-16T13:45:00.902Z,85.44
2018-03-16T13:45:02.002Z,85.44
2018-03-16T13:45:02.501Z,85.44
2018-03-16T13:45:03.361Z,86.20
2018-03-16T13:45:04.323Z,86.20
2018-03-16T13:45:04.926Z,85.72
2018-03-16T13:45:05.471Z,86.20
2018-03-16T13:45:06.154Z,86.11
2018-03-16T13:45:06.756Z,86.20
2018-03-16T13:45:07.449Z,86.30
2018-03-16T13:45:08.054Z,86.11
2018-03-16T13:45:08.596Z,86.20
2018-03-16T13:45:09.553Z,86.11
2018-03-16T13:45:10.123Z,86.01
2018-03-16T13:45:11.072Z,86.15
2018-03-16T13:45:11.738Z,86.11
2018-03-16T13:45:12.413Z,86.11
2018-03-16T13:45:13.149Z,86.11
2018-03-16T13:45:13.573Z,85.91
2018-03-16T13:45:14.263Z,86.20
2018-03-16T13:45:14.902Z,86.01
2018-03-16T13:45:15.452Z,86.01
2018-03-16T13:45:16.102Z,85.82
2018-03-16T13:45:16.995Z,85.91
2018-03-16T13:45:17.684Z,86.01
2018-03-16T13:45:18.294Z,86.01
2018-03-16T13:45:18.827Z,86.01
2018-03-16T13:45:19.412Z,86.11
2018-03-16T13:45:20.382Z,85.91
2018-03-16T13:45:21.011Z,86.11
2018-03-16T13:45:22.002Z,86.30
2018-03-16T13:45:22.475Z,86.11
2018-03-16T13:45:23.053Z,86.20
2018-03-16T13:45:23.718Z,86.20
2018-03-16T13:45:24.247Z,86.11
2018-03-16T13:45:24.903Z,86.20
2018-03-16T13:45:25.590Z,86.49
2018-03-16T13:45:26.136Z,86.68
2018-03-16T13:45:27.085Z,86.68
2018-03-16T13:45:27.578Z,86.68
2018-03-16T13:45:28.173Z,86.68
2018-03-16T13:45:28.833Z,86.49
2018-03-16T13:45:29.350Z,86.49
2018-03-16T13:45:30.023Z,86.58
2018-03-16T13:45:30.942Z,86.68
2018-03-16T13:45:31.456Z,86.58
2018-03-16T13:45:32.142Z,86.49
2018-03-16T13:45:32.687Z,86.77
2018-03-16T13:45:33.212Z,86.68
2018-03-16T13:45:34.186Z,86.68
2018-03-16T13:45:34.815Z,86.58
2018-03-16T13:45:35.382Z,86.49
2018-03-16T13:45:36.353Z,86.49
2018-03-16T13:45:37.321Z,86.68
2018-03-16T13:45:37.907Z,86.68
2018-03-16T13:45:38.841Z,86.58
2018-03-16T13:45:39.499Z,86.58
2018-03-16T13:45:40.062Z,86.58
2018-03-16T13:45:40.641Z,86.58
2018-03-16T13:45:41.341Z,86.49
2018-03-16T13:45:41.889Z,86.58
2018-03-16T13:45:42.605Z,86.49
2018-03-16T13:45:43.261Z,86.39
2018-03-16T13:45:43.880Z,86.39
2018-03-16T13:45:44.535Z,86.49
2018-03-16T13:45:45.122Z,86.39
2018-03-16T13:45:45.708Z,86.20
2018-03-16T13:45:46.424Z,86.30
2018-03-16T13:45:46.924Z,86.30
2018-03-16T13:45:47.622Z,86.39
2018-03-16T13:45:48.094Z,86.87
2018-03-16T13:45:48.625Z,86.58
2018-03-16T13:45:49.294Z,86.49
2018-03-16T13:45:49.841Z,86.58
2018-03-16T13:45:50.433Z,86.49
2018-03-16T13:45:51.086Z,86.68
2018-03-16T13:45:51.753Z,86.39
2018-03-16T13:45:52.422Z,86.58
2018-03-16T13:45:53.089Z,86.39
2018-03-16T13:45:54.061Z,86.49
2018-03-16T13:45:54.810Z,86.53
2018-03-16T13:45:55.391Z,87.05
2018-03-16T13:45:56.085Z,86.58
2018-03-16T13:45:56.663Z,86.58
2018-03-16T13:45:57.568Z,86.49
2018-03-16T13:45:58.533Z,87.05
2018-03-16T13:45:59.477Z,87.24
2018-03-16T13:46:00.004Z,86.49
2018-03-16T13:46:00.547Z,86.30
2018-03-16T13:46:01.120Z,86.39
2018-03-16T13:46:01.799Z,87.24
2018-03-16T13:46:02.452Z,86.53
2018-03-16T13:46:03.074Z,86.30
2018-03-16T13:46:03.609Z,86.39
2018-03-16T13:46:04.307Z,86.30
2018-03-16T13:46:05.195Z,86.39
2018-03-16T13:46:06.153Z,86.39
2018-03-16T13:46:06.934Z,86.39
2018-03-16T13:46:07.471Z,86.49
2018-03-16T13:46:08.427Z,86.68
2018-03-16T13:46:08.948Z,86.49
2018-03-16T13:46:09.624Z,86.68
2018-03-16T13:46:10.342Z,86.68
2018-03-16T13:46:10.886Z,86.68
2018-03-16T13:46:11.903Z,86.30
2018-03-16T13:46:12.482Z,86.68
2018-03-16T13:46:13.144Z,86.49
2018-03-16T13:46:13.982Z,86.39
2018-03-16T13:46:14.522Z,86.49
2018-03-16T13:46:15.474Z,86.68
2018-03-16T13:46:16.124Z,86.39
2018-03-16T13:46:16.829Z,86.49
2018-03-16T13:46:17.469Z,86.34
2018-03-16T13:46:17.921Z,86.49
2018-03-16T13:46:19.598Z,86.63
2018-03-16T13:46:20.595Z,86.49
2018-03-16T13:46:21.137Z,86.53
2018-03-16T13:46:21.650Z,86.34
2018-03-16T13:46:22.278Z,86.96
2018-03-16T13:46:22.709Z,87.01
2018-03-16T13:46:23.631Z,87.19
2018-03-16T13:46:24.306Z,87.15
2018-03-16T13:46:24.967Z,87.19
2018-03-16T13:46:25.639Z,87.29
2018-03-16T13:46:26.152Z,86.82
2018-03-16T13:46:26.724Z,87.01
2018-03-16T13:46:27.421Z,86.91
2018-03-16T13:46:27.968Z,86.87
2018-03-16T13:46:28.672Z,86.91
2018-03-16T13:46:29.321Z,87.05
2018-03-16T13:46:29.851Z,86.91
2018-03-16T13:46:30.430Z,86.87
2018-03-16T13:46:31.084Z,87.05
2018-03-16T13:46:31.762Z,87.01
2018-03-16T13:46:32.422Z,87.10
2018-03-16T13:46:32.972Z,87.10
2018-03-16T13:46:33.623Z,86.91
2018-03-16T13:46:34.302Z,86.91
2018-03-16T13:46:34.962Z,86.91
2018-03-16T13:46:35.621Z,87.01
2018-03-16T13:46:36.161Z,87.01
2018-03-16T13:46:36.804Z,87.05
2018-03-16T13:46:37.493Z,86.87
2018-03-16T13:46:38.028Z,87.05
2018-03-16T13:46:38.663Z,86.91
2018-03-16T13:46:39.563Z,86.91
2018-03-16T13:46:40.221Z,86.87
2018-03-16T13:46:40.769Z,87.05
2018-03-16T13:46:41.352Z,86.96
2018-03-16T13:46:42.175Z,86.91
2018-03-16T13:46:42.821Z,86.87
2018-03-16T13:46:43.473Z,86.87
2018-03-16T13:46:44.061Z,86.96
2018-03-16T13:46:44.642Z,87.05
2018-03-16T13:46:45.316Z,87.05
2018-03-16T13:46:45.862Z,86.49
2018-03-16T13:46:46.424Z,86.96
2018-03-16T13:46:47.051Z,87.24
2018-03-16T13:46:47.596Z,87.01
2018-03-16T13:46:48.148Z,87.24
2018-03-16T13:46:48.653Z,86.49
2018-03-16T13:46:49.333Z,86.43
2018-03-16T13:46:49.873Z,86.43
2018-03-16T13:46:50.452Z,86.39
2018-03-16T13:46:51.127Z,86.39
2018-03-16T13:46:51.785Z,86.49
2018-03-16T13:46:52.466Z,86.49
2018-03-16T13:46:53.147Z,86.34
2018-03-16T13:46:53.692Z,86.68
2018-03-16T13:46:54.353Z,86.68
2018-03-16T13:46:55.316Z,86.68
2018-03-16T13:46:55.984Z,86.63
2018-03-16T13:46:56.940Z,86.63
2018-03-16T13:46:57.703Z,86.24
2018-03-16T13:46:58.375Z,86.30
2018-03-16T13:46:59.040Z,86.39
2018-03-16T13:46:59.570Z,86.58
2018-03-16T13:47:00.534Z,86.49
2018-03-16T13:47:01.228Z,86.39
2018-03-16T13:47:01.909Z,86.39
2018-03-16T13:47:02.731Z,86.58
2018-03-16T13:47:03.272Z,86.30
2018-03-16T13:47:03.845Z,86.58
2018-03-16T13:47:04.510Z,86.58
2018-03-16T13:47:05.036Z,86.63
2018-03-16T13:47:06.027Z,86.72
2018-03-16T13:47:06.536Z,86.58
2018-03-16T13:47:07.492Z,86.49
2018-03-16T13:47:08.652Z,86.68
2018-03-16T13:47:09.336Z,86.72
2018-03-16T13:47:09.908Z,86.58
2018-03-16T13:47:10.443Z,86.72
2018-03-16T13:47:11.091Z,86.68
2018-03-16T13:47:12.038Z,86.68
2018-03-16T13:47:12.975Z,86.39
2018-03-16T13:47:13.748Z,86.20
2018-03-16T13:47:14.282Z,85.63
2018-03-16T13:47:14.759Z,86.11
2018-03-16T13:47:15.419Z,86.20
2018-03-16T13:47:15.988Z,86.01
2018-03-16T13:47:16.608Z,85.82
2018-03-16T13:47:17.211Z,85.82
2018-03-16T13:47:17.892Z,86.11
2018-03-16T13:47:18.248Z,86.15
2018-03-16T13:47:18.850Z,85.91
2018-03-16T13:48:12.433Z,84.59
2018-03-16T13:48:12.959Z,84.87
2018-03-16T13:48:13.651Z,84.87
2018-03-16T13:48:14.325Z,84.59
2018-03-16T13:48:14.868Z,84.97
2018-03-16T13:48:15.802Z,84.87
2018-03-16T13:48:16.337Z,84.87
2018-03-16T13:48:17.292Z,84.97
2018-03-16T13:48:17.848Z,85.06
2018-03-16T13:48:18.387Z,85.06
2018-03-16T13:48:19.332Z,85.06
2018-03-16T13:48:19.877Z,85.16
2018-03-16T13:48:20.552Z,84.87
2018-03-16T13:48:21.221Z,85.06
2018-03-16T13:48:21.752Z,85.06
2018-03-16T13:48:22.423Z,84.78
2018-03-16T13:48:23.243Z,84.78
2018-03-16T13:48:23.905Z,85.06
2018-03-16T13:48:24.817Z,84.87
2018-03-16T13:48:25.362Z,84.87
2018-03-16T13:48:26.341Z,84.87
2018-03-16T13:48:26.972Z,84.97
2018-03-16T13:48:27.950Z,84.68
2018-03-16T13:48:28.555Z,85.06
2018-03-16T13:48:29.298Z,85.06
2018-03-16T13:48:29.992Z,85.06
2018-03-16T13:48:30.620Z,85.16
2018-03-16T13:48:31.262Z,85.16
2018-03-16T13:48:31.833Z,85.63
2018-03-16T13:48:32.489Z,85.16
2018-03-16T13:48:33.018Z,85.35
2018-03-16T13:48:33.682Z,85.44
2018-03-16T13:48:34.341Z,85.44
2018-03-16T13:48:35.303Z,85.63
2018-03-16T13:48:35.953Z,84.97
2018-03-16T13:48:36.494Z,85.16
2018-03-16T13:48:37.502Z,85.25
2018-03-16T13:48:37.995Z,85.35
2018-03-16T13:48:38.572Z,85.53
2018-03-16T13:48:39.332Z,85.44
2018-03-16T13:48:39.910Z,85.16
2018-03-16T13:48:40.501Z,85.06
2018-03-16T13:48:41.113Z,85.25
2018-03-16T13:48:41.814Z,85.16
2018-03-16T13:48:42.406Z,85.06
2018-03-16T13:48:43.112Z,85.25
2018-03-16T13:48:43.660Z,84.97
2018-03-16T13:48:44.433Z,85.06
2018-03-16T13:48:44.932Z,85.35
2018-03-16T13:48:45.454Z,85.16
2018-03-16T13:48:46.132Z,84.97
2018-03-16T13:48:47.082Z,84.97
2018-03-16T13:48:48.043Z,84.97
2018-03-16T13:48:48.771Z,85.35
2018-03-16T13:48:49.317Z,85.44
2018-03-16T13:48:49.981Z,85.44
2018-03-16T13:48:50.654Z,86.05
2018-03-16T13:48:51.173Z,85.91
2018-03-16T13:48:51.823Z,85.72
2018-03-16T13:48:52.381Z,85.68
2018-03-16T13:48:52.900Z,85.72
2018-03-16T13:48:53.481Z,85.53
2018-03-16T13:48:54.310Z,85.63
2018-03-16T13:48:54.894Z,86.11
2018-03-16T13:48:55.598Z,85.82
2018-03-16T13:48:56.162Z,86.01
2018-03-16T13:48:56.688Z,86.11
2018-03-16T13:48:57.351Z,85.91
2018-03-16T13:48:58.012Z,85.82
2018-03-16T13:48:58.551Z,85.82
2018-03-16T13:48:59.507Z,85.91
2018-03-16T13:49:00.350Z,85.91
2018-03-16T13:49:00.888Z,86.20
2018-03-16T13:49:01.471Z,86.01
2018-03-16T13:49:02.126Z,86.20
2018-03-16T13:49:03.081Z,86.15
2018-03-16T13:49:03.758Z,86.01
2018-03-16T13:49:04.284Z,86.01
2018-03-16T13:49:04.963Z,85.91
2018-03-16T13:49:05.669Z,85.82
2018-03-16T13:49:06.242Z,85.82
2018-03-16T13:49:06.904Z,86.01
2018-03-16T13:49:07.439Z,86.11
2018-03-16T13:49:07.981Z,86.01
2018-03-16T13:49:08.953Z,86.11
2018-03-16T13:49:09.477Z,86.11
2018-03-16T13:49:10.143Z,86.11
2018-03-16T13:49:10.817Z,86.01
2018-03-16T13:49:11.358Z,86.20
2018-03-16T13:49:12.025Z,86.11
2018-03-16T13:49:13.041Z,86.01
2018-03-16T13:49:13.632Z,86.20
2018-03-16T13:49:14.292Z,86.20
2018-03-16T13:49:14.831Z,86.11
2018-03-16T13:49:15.361Z,86.20
2018-03-16T13:49:16.033Z,85.82
2018-03-16T13:49:16.701Z,86.11
2018-03-16T13:49:17.282Z,86.20
2018-03-16T13:49:17.971Z,85.82
2018-03-16T13:49:18.512Z,85.82
2018-03-16T13:49:19.461Z,86.01
2018-03-16T13:49:20.128Z,86.01
2018-03-16T13:49:20.686Z,86.01
2018-03-16T13:49:21.352Z,86.15
2018-03-16T13:49:21.883Z,86.01
2018-03-16T13:49:22.417Z,86.11
2018-03-16T13:49:23.073Z,85.91
2018-03-16T13:49:23.747Z,86.01
2018-03-16T13:49:24.311Z,86.01
2018-03-16T13:49:24.844Z,85.82
2018-03-16T13:49:25.493Z,85.82
2018-03-16T13:49:26.151Z,85.82
2018-03-16T13:49:26.695Z,86.11
2018-03-16T13:49:27.348Z,85.82
2018-03-16T13:49:28.309Z,86.20
2018-03-16T13:49:29.261Z,85.91
2018-03-16T13:49:29.959Z,86.01
2018-03-16T13:49:30.633Z,86.11
2018-03-16T13:49:31.301Z,86.01
2018-03-16T13:49:32.305Z,86.01
2018-03-16T13:49:32.988Z,85.91
2018-03-16T13:49:34.355Z,86.11
2018-03-16T13:49:34.789Z,86.20
2018-03-16T13:49:35.462Z,86.11
2018-03-16T13:49:36.119Z,85.72
2018-03-16T13:49:36.824Z,86.20
2018-03-16T13:49:37.445Z,85.44
2018-03-16T13:49:38.324Z,85.63
2018-03-16T13:49:38.867Z,85.44
2018-03-16T13:49:39.820Z,85.44
2018-03-16T13:49:40.388Z,85.44
2018-03-16T13:49:41.033Z,85.91
2018-03-16T13:49:41.613Z,85.82
2018-03-16T13:49:42.302Z,85.82
2018-03-16T13:49:42.849Z,85.91
2018-03-16T13:49:43.420Z,86.01
2018-03-16T13:49:43.974Z,85.91
2018-03-16T13:49:44.525Z,85.91
2018-03-16T13:49:45.185Z,85.91
2018-03-16T13:49:45.842Z,85.91
2018-03-16T13:49:46.350Z,85.72
2018-03-16T13:49:47.304Z,85.53
2018-03-16T13:49:47.882Z,85.63
2018-03-16T13:49:48.416Z,85.63
2018-03-16T13:49:49.074Z,85.53
2018-03-16T13:49:49.871Z,85.63
2018-03-16T13:49:50.525Z,85.63
2018-03-16T13:49:51.197Z,85.72
2018-03-16T13:49:51.725Z,85.82
2018-03-16T13:49:52.391Z,85.53
2018-03-16T13:49:53.174Z,85.82
2018-03-16T13:49:53.719Z,85.91
2018-03-16T13:49:54.379Z,85.91
2018-03-16T13:49:54.925Z,85.53
2018-03-16T13:49:55.890Z,85.53
2018-03-16T13:49:56.542Z,85.53
2018-03-16T13:49:57.078Z,85.72
2018-03-16T13:49:57.741Z,85.53
2018-03-16T13:49:58.401Z,85.63
2018-03-16T13:49:59.414Z,85.63
2018-03-16T13:50:00.062Z,85.91
2018-03-16T13:50:01.023Z,85.91
2018-03-16T13:50:01.912Z,85.91
2018-03-16T13:50:02.576Z,85.82
2018-03-16T13:50:03.215Z,85.91
2018-03-16T13:50:03.815Z,85.63
2018-03-16T13:50:04.493Z,86.20
2018-03-16T13:50:05.156Z,85.72
2018-03-16T13:50:05.833Z,86.20
2018-03-16T13:50:06.495Z,86.11
2018-03-16T13:50:07.437Z,85.91
2018-03-16T13:50:07.977Z,86.20
2018-03-16T13:50:08.641Z,85.91
2018-03-16T13:50:09.311Z,86.11
2018-03-16T13:50:10.284Z,86.11
2018-03-16T13:50:10.949Z,86.01
2018-03-16T13:50:11.486Z,86.30
2018-03-16T13:50:12.027Z,85.72
2018-03-16T13:50:12.711Z,86.01
2018-03-16T13:50:13.283Z,85.63
2018-03-16T13:50:13.818Z,85.82
2018-03-16T13:50:14.481Z,86.11
2018-03-16T13:50:15.317Z,86.11
2018-03-16T13:50:15.879Z,86.11
2018-03-16T13:50:16.543Z,86.11
2018-03-16T13:50:17.175Z,86.20
2018-03-16T13:50:17.785Z,86.30
2018-03-16T13:50:18.433Z,86.39
2018-03-16T13:50:18.967Z,86.01
2018-03-16T13:50:19.569Z,86.01
2018-03-16T13:50:20.213Z,86.20
2018-03-16T13:50:21.212Z,86.11
2018-03-16T13:50:21.915Z,86.01
2018-03-16T13:50:22.590Z,86.01
2018-03-16T13:50:23.181Z,86.11
2018-03-16T13:50:23.716Z,86.01
2018-03-16T13:50:24.674Z,86.01
2018-03-16T13:50:25.372Z,86.20
2018-03-16T13:50:26.159Z,86.20
2018-03-16T13:50:26.778Z,86.01
2018-03-16T13:50:27.421Z,86.11
2018-03-16T13:50:28.072Z,85.91
2018-03-16T13:50:28.664Z,85.91
2018-03-16T13:50:29.359Z,86.20
2018-03-16T13:50:29.908Z,86.11
2018-03-16T13:50:30.591Z,86.11
2018-03-16T13:50:31.513Z,86.20
2018-03-16T13:50:32.451Z,86.11
2018-03-16T13:50:33.077Z,86.11
2018-03-16T13:50:33.749Z,86.11
2018-03-16T13:50:34.494Z,86.11
2018-03-16T13:50:35.025Z,86.11
2018-03-16T13:50:35.992Z,85.91
2018-03-16T13:50:36.646Z,85.63
2018-03-16T13:50:37.343Z,86.11
2018-03-16T13:50:37.931Z,86.20
2018-03-16T13:50:38.832Z,86.20
2018-03-16T13:50:39.407Z,86.11
2018-03-16T13:50:40.491Z,86.20
2018-03-16T13:50:41.064Z,86.11
2018-03-16T13:50:42.024Z,86.11
2018-03-16T13:50:42.569Z,86.20
2018-03-16T13:50:43.522Z,86.11
2018-03-16T13:50:44.392Z,86.11
2018-03-16T13:50:44.982Z,86.11
2018-03-16T13:50:45.644Z,86.30
2018-03-16T13:50:46.177Z,86.11
2018-03-16T13:50:46.750Z,86.01
2018-03-16T13:50:47.417Z,85.91
2018-03-16T13:50:47.960Z,85.91
2018-03-16T13:50:48.655Z,86.11
2018-03-16T13:50:49.445Z,86.11
2018-03-16T13:50:50.157Z,85.91
2018-03-16T13:50:50.733Z,86.20
2018-03-16T13:50:51.411Z,86.20
2018-03-16T13:50:51.941Z,86.01
2018-03-16T13:50:52.604Z,86.11
2018-03-16T13:50:53.558Z,86.30
2018-03-16T13:50:54.116Z,86.77
2018-03-16T13:50:54.815Z,86.58
2018-03-16T13:50:55.476Z,86.20
2018-03-16T13:50:56.043Z,86.58
2018-03-16T13:50:56.713Z,86.58
2018-03-16T13:50:57.657Z,86.58
2018-03-16T13:50:58.338Z,86.49
2018-03-16T13:50:59.007Z,86.30
2018-03-16T13:50:59.677Z,86.49
2018-03-16T13:51:00.192Z,86.49
2018-03-16T13:51:00.866Z,86.49
2018-03-16T13:51:01.532Z,86.49
2018-03-16T13:51:02.058Z,86.77
2018-03-16T13:51:03.011Z,86.39
2018-03-16T13:51:03.557Z,86.87
2018-03-16T13:51:04.206Z,86.58
2018-03-16T13:51:04.861Z,86.68
2018-03-16T13:51:05.383Z,86.68
2018-03-16T13:51:06.047Z,86.39
2018-03-16T13:51:06.724Z,86.58
2018-03-16T13:51:07.382Z,86.58
2018-03-16T13:51:08.042Z,86.39
2018-03-16T13:51:08.695Z,86.39
2018-03-16T13:51:09.216Z,86.30
2018-03-16T13:51:09.885Z,86.30
2018-03-16T13:51:10.620Z,86.49
2018-03-16T13:51:11.201Z,86.96
2018-03-16T13:51:12.145Z,86.39
2018-03-16T13:51:13.103Z,86.49
2018-03-16T13:51:13.775Z,87.15
2018-03-16T13:51:14.441Z,86.87
2018-03-16T13:51:15.094Z,87.24